sensor_id;sensor_type;location;lat;lon;timestamp;P1;durP1;ratioP1;P2;durP2;ratioP2
12878;SDS011;20617;49.476;10.986;2024-02-23T00:01:13;1.00;;;0.40;;
12878;SDS011;20617;49.476;10.986;2024-02-23T00:03:13;0.68;;;0.32;;
12878;SDS011;20617;49.476;10.986;2024-02-23T00:05:14;1.50;;;0.40;;
12878;SDS011;20617;49.476;10.986;2024-02-23T00:07:18;0.82;;;0.40;;
12878;SDS011;20617;49.476;10.986;2024-02-23T00:09:19;1.63;;;0.43;;
12878;SDS011;20617;49.476;10.986;2024-02-23T00:11:23;0.30;;;0.30;;
12878;SDS011;20617;49.476;10.986;2024-02-23T00:13:23;0.63;;;0.30;;
12878;SDS011;20617;49.476;10.986;2024-02-23T00:15:24;0.40;;;0.35;;
12878;SDS011;20617;49.476;10.986;2024-02-23T00:17:27;0.95;;;0.50;;
12878;SDS011;20617;49.476;10.986;2024-02-23T00:19:29;1.45;;;0.40;;
12878;SDS011;20617;49.476;10.986;2024-02-23T00:21:30;1.90;;;0.38;;
12878;SDS011;20617;49.476;10.986;2024-02-23T00:23:31;0.20;;;0.20;;
12878;SDS011;20617;49.476;10.986;2024-02-23T00:25:31;0.25;;;0.20;;
12878;SDS011;20617;49.476;10.986;2024-02-23T00:27:32;0.10;;;0.10;;
12878;SDS011;20617;49.476;10.986;2024-02-23T00:29:33;1.30;;;0.57;;
12878;SDS011;20617;49.476;10.986;2024-02-23T00:31:33;1.30;;;0.35;;
12878;SDS011;20617;49.476;10.986;2024-02-23T00:33:40;1.17;;;0.32;;
12878;SDS011;20617;49.476;10.986;2024-02-23T00:35:40;0.60;;;0.30;;
12878;SDS011;20617;49.476;10.986;2024-02-23T00:37:41;0.70;;;0.22;;
12878;SDS011;20617;49.476;10.986;2024-02-23T00:39:42;0.80;;;0.40;;
12878;SDS011;20617;49.476;10.986;2024-02-23T00:41:43;0.50;;;0.20;;
12878;SDS011;20617;49.476;10.986;2024-02-23T00:43:44;1.15;;;0.30;;
12878;SDS011;20617;49.476;10.986;2024-02-23T00:45:45;0.22;;;0.20;;
12878;SDS011;20617;49.476;10.986;2024-02-23T00:47:49;2.88;;;0.30;;
12878;SDS011;20617;49.476;10.986;2024-02-23T00:49:53;2.38;;;0.30;;
12878;SDS011;20617;49.476;10.986;2024-02-23T00:51:53;0.30;;;0.20;;
12878;SDS011;20617;49.476;10.986;2024-02-23T00:53:55;0.47;;;0.20;;
12878;SDS011;20617;49.476;10.986;2024-02-23T00:55:56;0.20;;;0.10;;
12878;SDS011;20617;49.476;10.986;2024-02-23T00:57:56;1.13;;;0.40;;
12878;SDS011;20617;49.476;10.986;2024-02-23T00:59:57;0.55;;;0.40;;
12878;SDS011;20617;49.476;10.986;2024-02-23T01:01:58;7.32;;;0.40;;
12878;SDS011;20617;49.476;10.986;2024-02-23T01:03:59;0.75;;;0.22;;
12878;SDS011;20617;49.476;10.986;2024-02-23T01:06:03;1.38;;;0.38;;
12878;SDS011;20617;49.476;10.986;2024-02-23T01:08:05;1.00;;;0.45;;
12878;SDS011;20617;49.476;10.986;2024-02-23T01:10:06;1.60;;;0.40;;
12878;SDS011;20617;49.476;10.986;2024-02-23T01:12:07;0.55;;;0.30;;
12878;SDS011;20617;49.476;10.986;2024-02-23T01:14:08;1.30;;;0.30;;
12878;SDS011;20617;49.476;10.986;2024-02-23T01:16:09;0.73;;;0.25;;
12878;SDS011;20617;49.476;10.986;2024-02-23T01:18:09;1.73;;;0.40;;
12878;SDS011;20617;49.476;10.986;2024-02-23T01:20:10;0.60;;;0.20;;
12878;SDS011;20617;49.476;10.986;2024-02-23T01:22:14;0.32;;;0.30;;
12878;SDS011;20617;49.476;10.986;2024-02-23T01:24:15;1.25;;;0.30;;
12878;SDS011;20617;49.476;10.986;2024-02-23T01:26:15;1.48;;;0.32;;
12878;SDS011;20617;49.476;10.986;2024-02-23T01:28:16;1.25;;;0.43;;
12878;SDS011;20617;49.476;10.986;2024-02-23T01:30:17;1.27;;;0.50;;
12878;SDS011;20617;49.476;10.986;2024-02-23T01:32:17;1.10;;;0.40;;
12878;SDS011;20617;49.476;10.986;2024-02-23T01:34:18;0.57;;;0.43;;
12878;SDS011;20617;49.476;10.986;2024-02-23T01:36:19;0.32;;;0.32;;
12878;SDS011;20617;49.476;10.986;2024-02-23T01:38:22;1.10;;;0.40;;
12878;SDS011;20617;49.476;10.986;2024-02-23T01:40:23;1.05;;;0.30;;
12878;SDS011;20617;49.476;10.986;2024-02-23T01:42:29;2.58;;;0.57;;
12878;SDS011;20617;49.476;10.986;2024-02-23T01:44:30;1.08;;;0.28;;
12878;SDS011;20617;49.476;10.986;2024-02-23T01:46:31;2.55;;;0.68;;
12878;SDS011;20617;49.476;10.986;2024-02-23T01:48:32;0.50;;;0.20;;
12878;SDS011;20617;49.476;10.986;2024-02-23T01:50:33;1.75;;;0.40;;
12878;SDS011;20617;49.476;10.986;2024-02-23T01:52:34;2.03;;;0.65;;
12878;SDS011;20617;49.476;10.986;2024-02-23T01:54:38;1.52;;;0.40;;
12878;SDS011;20617;49.476;10.986;2024-02-23T01:56:39;2.97;;;0.40;;
12878;SDS011;20617;49.476;10.986;2024-02-23T01:58:40;0.70;;;0.32;;
12878;SDS011;20617;49.476;10.986;2024-02-23T02:00:41;2.20;;;0.40;;
12878;SDS011;20617;49.476;10.986;2024-02-23T02:02:41;0.88;;;0.35;;
12878;SDS011;20617;49.476;10.986;2024-02-23T02:04:43;2.45;;;0.40;;
12878;SDS011;20617;49.476;10.986;2024-02-23T02:06:45;1.65;;;0.30;;
12878;SDS011;20617;49.476;10.986;2024-02-23T02:08:47;1.45;;;0.45;;
12878;SDS011;20617;49.476;10.986;2024-02-23T02:10:51;1.95;;;0.45;;
12878;SDS011;20617;49.476;10.986;2024-02-23T02:12:54;1.38;;;0.40;;
12878;SDS011;20617;49.476;10.986;2024-02-23T02:14:55;0.70;;;0.30;;
12878;SDS011;20617;49.476;10.986;2024-02-23T02:16:55;0.70;;;0.30;;
12878;SDS011;20617;49.476;10.986;2024-02-23T02:18:56;3.30;;;0.50;;
12878;SDS011;20617;49.476;10.986;2024-02-23T02:20:57;1.67;;;0.60;;
12878;SDS011;20617;49.476;10.986;2024-02-23T02:22:58;2.20;;;0.52;;
12878;SDS011;20617;49.476;10.986;2024-02-23T02:24:59;2.00;;;0.47;;
12878;SDS011;20617;49.476;10.986;2024-02-23T02:27:02;0.70;;;0.28;;
12878;SDS011;20617;49.476;10.986;2024-02-23T02:29:03;1.38;;;0.43;;
12878;SDS011;20617;49.476;10.986;2024-02-23T02:31:05;1.52;;;0.50;;
12878;SDS011;20617;49.476;10.986;2024-02-23T02:33:06;2.40;;;1.05;;
12878;SDS011;20617;49.476;10.986;2024-02-23T02:35:07;1.08;;;0.47;;
12878;SDS011;20617;49.476;10.986;2024-02-23T02:37:08;1.00;;;0.50;;
12878;SDS011;20617;49.476;10.986;2024-02-23T02:39:08;0.80;;;0.35;;
12878;SDS011;20617;49.476;10.986;2024-02-23T02:41:09;2.83;;;0.68;;
12878;SDS011;20617;49.476;10.986;2024-02-23T02:43:14;3.78;;;0.75;;
12878;SDS011;20617;49.476;10.986;2024-02-23T02:45:15;2.10;;;0.40;;
12878;SDS011;20617;49.476;10.986;2024-02-23T02:47:15;1.98;;;0.65;;
12878;SDS011;20617;49.476;10.986;2024-02-23T02:49:16;5.20;;;0.60;;
12878;SDS011;20617;49.476;10.986;2024-02-23T02:51:17;3.40;;;0.80;;
12878;SDS011;20617;49.476;10.986;2024-02-23T02:53:17;3.28;;;0.93;;
12878;SDS011;20617;49.476;10.986;2024-02-23T02:55:20;1.40;;;0.68;;
12878;SDS011;20617;49.476;10.986;2024-02-23T02:57:21;0.88;;;0.60;;
12878;SDS011;20617;49.476;10.986;2024-02-23T02:59:24;0.93;;;0.50;;
12878;SDS011;20617;49.476;10.986;2024-02-23T03:01:25;2.10;;;0.50;;
12878;SDS011;20617;49.476;10.986;2024-02-23T03:03:26;2.97;;;0.77;;
12878;SDS011;20617;49.476;10.986;2024-02-23T03:05:26;2.13;;;0.80;;
12878;SDS011;20617;49.476;10.986;2024-02-23T03:07:27;4.40;;;1.10;;
12878;SDS011;20617;49.476;10.986;2024-02-23T03:09:28;1.30;;;0.68;;
12878;SDS011;20617;49.476;10.986;2024-02-23T03:11:28;3.53;;;0.60;;
12878;SDS011;20617;49.476;10.986;2024-02-23T03:13:29;1.55;;;0.85;;
12878;SDS011;20617;49.476;10.986;2024-02-23T03:15:33;1.75;;;0.50;;
12878;SDS011;20617;49.476;10.986;2024-02-23T03:17:34;1.85;;;0.52;;
12878;SDS011;20617;49.476;10.986;2024-02-23T03:19:35;3.05;;;0.60;;
12878;SDS011;20617;49.476;10.986;2024-02-23T03:21:36;3.10;;;0.60;;
12878;SDS011;20617;49.476;10.986;2024-02-23T03:23:36;1.50;;;0.55;;
12878;SDS011;20617;49.476;10.986;2024-02-23T03:25:37;3.85;;;0.80;;
12878;SDS011;20617;49.476;10.986;2024-02-23T03:27:38;4.25;;;0.95;;
12878;SDS011;20617;49.476;10.986;2024-02-23T03:29:38;3.95;;;0.43;;
12878;SDS011;20617;49.476;10.986;2024-02-23T03:31:42;1.58;;;0.68;;
12878;SDS011;20617;49.476;10.986;2024-02-23T03:33:43;2.65;;;0.90;;
12878;SDS011;20617;49.476;10.986;2024-02-23T03:35:43;3.95;;;0.60;;
12878;SDS011;20617;49.476;10.986;2024-02-23T03:37:44;3.47;;;0.80;;
12878;SDS011;20617;49.476;10.986;2024-02-23T03:39:45;3.42;;;0.80;;
12878;SDS011;20617;49.476;10.986;2024-02-23T03:41:45;4.07;;;0.80;;
12878;SDS011;20617;49.476;10.986;2024-02-23T03:43:46;2.05;;;0.60;;
12878;SDS011;20617;49.476;10.986;2024-02-23T03:45:47;2.10;;;0.70;;
12878;SDS011;20617;49.476;10.986;2024-02-23T03:47:50;2.80;;;0.70;;
12878;SDS011;20617;49.476;10.986;2024-02-23T03:49:51;6.15;;;0.70;;
12878;SDS011;20617;49.476;10.986;2024-02-23T03:51:51;3.22;;;0.93;;
12878;SDS011;20617;49.476;10.986;2024-02-23T03:53:52;2.75;;;0.93;;
12878;SDS011;20617;49.476;10.986;2024-02-23T03:55:53;2.33;;;0.63;;
12878;SDS011;20617;49.476;10.986;2024-02-23T03:57:54;5.93;;;1.67;;
12878;SDS011;20617;49.476;10.986;2024-02-23T03:59:55;1.73;;;0.70;;
12878;SDS011;20617;49.476;10.986;2024-02-23T04:01:56;2.40;;;0.60;;
12878;SDS011;20617;49.476;10.986;2024-02-23T04:03:59;2.67;;;0.90;;
12878;SDS011;20617;49.476;10.986;2024-02-23T04:06:00;2.45;;;0.80;;
12878;SDS011;20617;49.476;10.986;2024-02-23T04:08:00;5.43;;;0.88;;
12878;SDS011;20617;49.476;10.986;2024-02-23T04:10:02;4.13;;;0.88;;
12878;SDS011;20617;49.476;10.986;2024-02-23T04:12:03;3.47;;;0.90;;
12878;SDS011;20617;49.476;10.986;2024-02-23T04:14:04;5.53;;;1.00;;
12878;SDS011;20617;49.476;10.986;2024-02-23T04:16:05;1.20;;;0.70;;
12878;SDS011;20617;49.476;10.986;2024-02-23T04:18:06;4.97;;;1.02;;
12878;SDS011;20617;49.476;10.986;2024-02-23T04:20:10;2.67;;;0.80;;
12878;SDS011;20617;49.476;10.986;2024-02-23T04:22:11;1.65;;;0.55;;
12878;SDS011;20617;49.476;10.986;2024-02-23T04:24:11;3.97;;;0.80;;
12878;SDS011;20617;49.476;10.986;2024-02-23T04:26:12;6.80;;;1.38;;
12878;SDS011;20617;49.476;10.986;2024-02-23T04:28:13;4.47;;;1.30;;
12878;SDS011;20617;49.476;10.986;2024-02-23T04:30:14;3.92;;;0.88;;
12878;SDS011;20617;49.476;10.986;2024-02-23T04:32:15;2.47;;;1.27;;
12878;SDS011;20617;49.476;10.986;2024-02-23T04:34:16;3.08;;;1.10;;
12878;SDS011;20617;49.476;10.986;2024-02-23T04:36:21;4.25;;;0.80;;
12878;SDS011;20617;49.476;10.986;2024-02-23T04:38:22;3.58;;;0.70;;
12878;SDS011;20617;49.476;10.986;2024-02-23T04:40:25;3.20;;;0.70;;
12878;SDS011;20617;49.476;10.986;2024-02-23T04:42:26;3.30;;;0.90;;
12878;SDS011;20617;49.476;10.986;2024-02-23T04:44:26;6.35;;;0.98;;
12878;SDS011;20617;49.476;10.986;2024-02-23T04:46:30;3.97;;;0.98;;
12878;SDS011;20617;49.476;10.986;2024-02-23T04:48:31;4.60;;;1.35;;
12878;SDS011;20617;49.476;10.986;2024-02-23T04:50:32;3.55;;;1.00;;
12878;SDS011;20617;49.476;10.986;2024-02-23T04:52:35;5.85;;;1.13;;
12878;SDS011;20617;49.476;10.986;2024-02-23T04:54:36;1.58;;;0.80;;
12878;SDS011;20617;49.476;10.986;2024-02-23T04:56:37;1.60;;;0.65;;
12878;SDS011;20617;49.476;10.986;2024-02-23T04:58:39;4.70;;;1.08;;
12878;SDS011;20617;49.476;10.986;2024-02-23T05:00:39;2.00;;;0.80;;
12878;SDS011;20617;49.476;10.986;2024-02-23T05:02:40;2.60;;;0.77;;
12878;SDS011;20617;49.476;10.986;2024-02-23T05:04:41;4.03;;;0.90;;
12878;SDS011;20617;49.476;10.986;2024-02-23T05:06:42;2.47;;;0.73;;
12878;SDS011;20617;49.476;10.986;2024-02-23T05:08:45;4.53;;;0.98;;
12878;SDS011;20617;49.476;10.986;2024-02-23T05:10:46;4.28;;;0.85;;
12878;SDS011;20617;49.476;10.986;2024-02-23T05:12:47;3.50;;;0.95;;
12878;SDS011;20617;49.476;10.986;2024-02-23T05:14:47;4.55;;;0.77;;
12878;SDS011;20617;49.476;10.986;2024-02-23T05:16:48;2.22;;;0.80;;
12878;SDS011;20617;49.476;10.986;2024-02-23T05:18:49;3.72;;;0.85;;
12878;SDS011;20617;49.476;10.986;2024-02-23T05:20:49;4.70;;;0.95;;
12878;SDS011;20617;49.476;10.986;2024-02-23T05:22:50;3.75;;;1.00;;
12878;SDS011;20617;49.476;10.986;2024-02-23T05:24:53;4.70;;;0.80;;
12878;SDS011;20617;49.476;10.986;2024-02-23T05:26:54;5.72;;;0.88;;
12878;SDS011;20617;49.476;10.986;2024-02-23T05:28:57;3.30;;;1.05;;
12878;SDS011;20617;49.476;10.986;2024-02-23T05:30:57;4.70;;;0.93;;
12878;SDS011;20617;49.476;10.986;2024-02-23T05:32:58;2.53;;;0.80;;
12878;SDS011;20617;49.476;10.986;2024-02-23T05:34:59;2.50;;;0.60;;
12878;SDS011;20617;49.476;10.986;2024-02-23T05:36:59;4.03;;;0.88;;
12878;SDS011;20617;49.476;10.986;2024-02-23T05:39:00;4.43;;;1.00;;
12878;SDS011;20617;49.476;10.986;2024-02-23T05:41:03;2.13;;;0.55;;
12878;SDS011;20617;49.476;10.986;2024-02-23T05:43:04;3.95;;;0.90;;
12878;SDS011;20617;49.476;10.986;2024-02-23T05:45:06;3.33;;;1.17;;
12878;SDS011;20617;49.476;10.986;2024-02-23T05:47:07;3.30;;;0.75;;
12878;SDS011;20617;49.476;10.986;2024-02-23T05:49:08;2.75;;;0.88;;
12878;SDS011;20617;49.476;10.986;2024-02-23T05:51:08;2.88;;;0.93;;
12878;SDS011;20617;49.476;10.986;2024-02-23T05:53:09;4.90;;;1.05;;
12878;SDS011;20617;49.476;10.986;2024-02-23T05:55:10;3.05;;;0.73;;
12878;SDS011;20617;49.476;10.986;2024-02-23T05:57:13;2.83;;;0.88;;
12878;SDS011;20617;49.476;10.986;2024-02-23T05:59:14;3.35;;;0.93;;
12878;SDS011;20617;49.476;10.986;2024-02-23T06:01:14;3.08;;;1.48;;
12878;SDS011;20617;49.476;10.986;2024-02-23T06:03:15;5.55;;;1.02;;
12878;SDS011;20617;49.476;10.986;2024-02-23T06:05:16;2.90;;;0.90;;
12878;SDS011;20617;49.476;10.986;2024-02-23T06:07:16;3.28;;;0.90;;
12878;SDS011;20617;49.476;10.986;2024-02-23T06:09:17;4.20;;;0.98;;
12878;SDS011;20617;49.476;10.986;2024-02-23T06:11:18;3.78;;;0.90;;
12878;SDS011;20617;49.476;10.986;2024-02-23T06:13:21;4.03;;;1.02;;
12878;SDS011;20617;49.476;10.986;2024-02-23T06:15:22;3.53;;;0.80;;
12878;SDS011;20617;49.476;10.986;2024-02-23T06:17:23;3.30;;;0.80;;
12878;SDS011;20617;49.476;10.986;2024-02-23T06:19:24;4.32;;;1.10;;
12878;SDS011;20617;49.476;10.986;2024-02-23T06:21:25;2.65;;;1.00;;
12878;SDS011;20617;49.476;10.986;2024-02-23T06:23:26;4.43;;;1.10;;
12878;SDS011;20617;49.476;10.986;2024-02-23T06:25:27;3.42;;;1.15;;
12878;SDS011;20617;49.476;10.986;2024-02-23T06:27:27;3.97;;;0.70;;
12878;SDS011;20617;49.476;10.986;2024-02-23T06:29:31;3.50;;;1.20;;
12878;SDS011;20617;49.476;10.986;2024-02-23T06:31:31;5.95;;;1.25;;
12878;SDS011;20617;49.476;10.986;2024-02-23T06:33:32;4.13;;;1.83;;
12878;SDS011;20617;49.476;10.986;2024-02-23T06:35:33;6.78;;;2.55;;
12878;SDS011;20617;49.476;10.986;2024-02-23T06:37:34;5.90;;;1.67;;
12878;SDS011;20617;49.476;10.986;2024-02-23T06:39:34;3.88;;;1.10;;
12878;SDS011;20617;49.476;10.986;2024-02-23T06:41:35;3.38;;;1.25;;
12878;SDS011;20617;49.476;10.986;2024-02-23T06:43:36;6.28;;;2.17;;
12878;SDS011;20617;49.476;10.986;2024-02-23T06:45:39;6.07;;;1.92;;
12878;SDS011;20617;49.476;10.986;2024-02-23T06:47:40;5.93;;;1.42;;
12878;SDS011;20617;49.476;10.986;2024-02-23T06:49:41;3.17;;;1.00;;
12878;SDS011;20617;49.476;10.986;2024-02-23T06:51:42;1.88;;;0.90;;
12878;SDS011;20617;49.476;10.986;2024-02-23T06:53:42;4.15;;;0.98;;
12878;SDS011;20617;49.476;10.986;2024-02-23T06:55:43;2.53;;;0.90;;
12878;SDS011;20617;49.476;10.986;2024-02-23T06:57:44;2.70;;;1.05;;
12878;SDS011;20617;49.476;10.986;2024-02-23T06:59:44;1.30;;;1.17;;
12878;SDS011;20617;49.476;10.986;2024-02-23T07:01:51;4.78;;;1.20;;
12878;SDS011;20617;49.476;10.986;2024-02-23T07:03:52;4.88;;;1.25;;
12878;SDS011;20617;49.476;10.986;2024-02-23T07:05:53;2.05;;;0.90;;
12878;SDS011;20617;49.476;10.986;2024-02-23T07:07:53;3.33;;;1.02;;
12878;SDS011;20617;49.476;10.986;2024-02-23T07:09:54;3.75;;;1.20;;
12878;SDS011;20617;49.476;10.986;2024-02-23T07:11:55;3.92;;;1.13;;
12878;SDS011;20617;49.476;10.986;2024-02-23T07:13:55;4.32;;;0.95;;
12878;SDS011;20617;49.476;10.986;2024-02-23T07:15:56;3.63;;;1.63;;
12878;SDS011;20617;49.476;10.986;2024-02-23T07:18:00;2.78;;;1.08;;
12878;SDS011;20617;49.476;10.986;2024-02-23T07:20:00;4.15;;;1.45;;
12878;SDS011;20617;49.476;10.986;2024-02-23T07:22:01;4.38;;;0.93;;
12878;SDS011;20617;49.476;10.986;2024-02-23T07:24:02;2.58;;;0.88;;
12878;SDS011;20617;49.476;10.986;2024-02-23T07:26:03;2.33;;;1.02;;
12878;SDS011;20617;49.476;10.986;2024-02-23T07:28:04;3.70;;;0.90;;
12878;SDS011;20617;49.476;10.986;2024-02-23T07:30:06;3.63;;;0.90;;
12878;SDS011;20617;49.476;10.986;2024-02-23T07:32:07;3.35;;;1.27;;
12878;SDS011;20617;49.476;10.986;2024-02-23T07:34:11;3.83;;;0.82;;
12878;SDS011;20617;49.476;10.986;2024-02-23T07:36:13;2.85;;;1.10;;
12878;SDS011;20617;49.476;10.986;2024-02-23T07:38:14;2.63;;;1.50;;
12878;SDS011;20617;49.476;10.986;2024-02-23T07:40:15;2.72;;;0.85;;
12878;SDS011;20617;49.476;10.986;2024-02-23T07:42:16;2.90;;;0.77;;
12878;SDS011;20617;49.476;10.986;2024-02-23T07:44:16;3.28;;;1.08;;
12878;SDS011;20617;49.476;10.986;2024-02-23T07:46:17;3.65;;;1.02;;
12878;SDS011;20617;49.476;10.986;2024-02-23T07:48:18;1.70;;;0.73;;
12878;SDS011;20617;49.476;10.986;2024-02-23T07:50:21;2.38;;;0.90;;
12878;SDS011;20617;49.476;10.986;2024-02-23T07:52:22;4.28;;;1.55;;
12878;SDS011;20617;49.476;10.986;2024-02-23T07:54:22;12.05;;;4.88;;
12878;SDS011;20617;49.476;10.986;2024-02-23T07:56:23;4.60;;;2.08;;
12878;SDS011;20617;49.476;10.986;2024-02-23T07:58:24;3.10;;;1.30;;
12878;SDS011;20617;49.476;10.986;2024-02-23T08:00:24;5.60;;;1.30;;
12878;SDS011;20617;49.476;10.986;2024-02-23T08:02:25;2.28;;;0.93;;
12878;SDS011;20617;49.476;10.986;2024-02-23T08:04:26;2.67;;;1.00;;
12878;SDS011;20617;49.476;10.986;2024-02-23T08:06:29;3.85;;;0.88;;
12878;SDS011;20617;49.476;10.986;2024-02-23T08:08:30;4.90;;;0.90;;
12878;SDS011;20617;49.476;10.986;2024-02-23T08:10:31;3.13;;;1.33;;
12878;SDS011;20617;49.476;10.986;2024-02-23T08:12:31;3.08;;;1.10;;
12878;SDS011;20617;49.476;10.986;2024-02-23T08:14:32;3.97;;;1.05;;
12878;SDS011;20617;49.476;10.986;2024-02-23T08:16:33;2.13;;;0.80;;
12878;SDS011;20617;49.476;10.986;2024-02-23T08:18:33;2.13;;;0.93;;
12878;SDS011;20617;49.476;10.986;2024-02-23T08:20:34;4.03;;;1.40;;
12878;SDS011;20617;49.476;10.986;2024-02-23T08:22:37;3.08;;;1.02;;
12878;SDS011;20617;49.476;10.986;2024-02-23T08:24:38;2.53;;;1.10;;
12878;SDS011;20617;49.476;10.986;2024-02-23T08:26:39;3.72;;;1.70;;
12878;SDS011;20617;49.476;10.986;2024-02-23T08:28:39;5.57;;;1.40;;
12878;SDS011;20617;49.476;10.986;2024-02-23T08:30:40;4.53;;;1.10;;
12878;SDS011;20617;49.476;10.986;2024-02-23T08:32:42;6.38;;;1.33;;
12878;SDS011;20617;49.476;10.986;2024-02-23T08:34:42;3.22;;;1.08;;
12878;SDS011;20617;49.476;10.986;2024-02-23T08:36:43;2.83;;;0.70;;
12878;SDS011;20617;49.476;10.986;2024-02-23T08:38:46;3.03;;;1.02;;
12878;SDS011;20617;49.476;10.986;2024-02-23T08:40:47;1.88;;;0.82;;
12878;SDS011;20617;49.476;10.986;2024-02-23T08:42:48;1.73;;;0.75;;
12878;SDS011;20617;49.476;10.986;2024-02-23T08:44:49;4.85;;;1.10;;
12878;SDS011;20617;49.476;10.986;2024-02-23T08:46:49;2.78;;;0.95;;
12878;SDS011;20617;49.476;10.986;2024-02-23T08:48:50;1.77;;;0.85;;
12878;SDS011;20617;49.476;10.986;2024-02-23T08:50:51;4.07;;;1.17;;
12878;SDS011;20617;49.476;10.986;2024-02-23T08:52:51;2.22;;;0.80;;
12878;SDS011;20617;49.476;10.986;2024-02-23T08:54:55;8.57;;;1.20;;
12878;SDS011;20617;49.476;10.986;2024-02-23T08:56:55;3.08;;;1.20;;
12878;SDS011;20617;49.476;10.986;2024-02-23T08:58:56;2.35;;;0.73;;
12878;SDS011;20617;49.476;10.986;2024-02-23T09:00:57;1.92;;;1.15;;
12878;SDS011;20617;49.476;10.986;2024-02-23T09:02:57;2.95;;;1.00;;
12878;SDS011;20617;49.476;10.986;2024-02-23T09:04:58;4.97;;;0.90;;
12878;SDS011;20617;49.476;10.986;2024-02-23T09:06:59;5.07;;;1.20;;
12878;SDS011;20617;49.476;10.986;2024-02-23T09:08:59;2.78;;;1.20;;
12878;SDS011;20617;49.476;10.986;2024-02-23T09:11:03;2.13;;;0.75;;
12878;SDS011;20617;49.476;10.986;2024-02-23T09:13:04;2.47;;;1.02;;
12878;SDS011;20617;49.476;10.986;2024-02-23T09:15:05;6.90;;;0.73;;
12878;SDS011;20617;49.476;10.986;2024-02-23T09:17:06;1.98;;;1.02;;
12878;SDS011;20617;49.476;10.986;2024-02-23T09:19:07;3.55;;;1.48;;
12878;SDS011;20617;49.476;10.986;2024-02-23T09:21:07;2.53;;;0.90;;
12878;SDS011;20617;49.476;10.986;2024-02-23T09:23:08;1.45;;;0.60;;
12878;SDS011;20617;49.476;10.986;2024-02-23T09:25:09;3.00;;;1.05;;
12878;SDS011;20617;49.476;10.986;2024-02-23T09:27:12;2.00;;;0.75;;
12878;SDS011;20617;49.476;10.986;2024-02-23T09:29:13;3.13;;;0.90;;
12878;SDS011;20617;49.476;10.986;2024-02-23T09:31:14;2.25;;;0.75;;
12878;SDS011;20617;49.476;10.986;2024-02-23T09:33:14;2.40;;;1.02;;
12878;SDS011;20617;49.476;10.986;2024-02-23T09:35:15;2.80;;;0.80;;
12878;SDS011;20617;49.476;10.986;2024-02-23T09:37:16;2.15;;;0.90;;
12878;SDS011;20617;49.476;10.986;2024-02-23T09:39:16;2.22;;;0.95;;
12878;SDS011;20617;49.476;10.986;2024-02-23T09:41:18;2.92;;;0.95;;
12878;SDS011;20617;49.476;10.986;2024-02-23T09:43:23;5.15;;;1.00;;
12878;SDS011;20617;49.476;10.986;2024-02-23T09:45:28;4.95;;;1.17;;
12878;SDS011;20617;49.476;10.986;2024-02-23T09:47:29;12.40;;;2.00;;
12878;SDS011;20617;49.476;10.986;2024-02-23T09:49:31;3.72;;;1.15;;
12878;SDS011;20617;49.476;10.986;2024-02-23T09:51:32;3.15;;;1.27;;
12878;SDS011;20617;49.476;10.986;2024-02-23T09:53:34;3.75;;;1.90;;
12878;SDS011;20617;49.476;10.986;2024-02-23T09:55:38;3.90;;;1.67;;
12878;SDS011;20617;49.476;10.986;2024-02-23T09:57:40;3.92;;;1.55;;
12878;SDS011;20617;49.476;10.986;2024-02-23T09:59:44;3.28;;;0.90;;
12878;SDS011;20617;49.476;10.986;2024-02-23T10:01:46;1.83;;;0.68;;
12878;SDS011;20617;49.476;10.986;2024-02-23T10:03:47;1.77;;;0.80;;
12878;SDS011;20617;49.476;10.986;2024-02-23T10:05:48;2.45;;;0.82;;
12878;SDS011;20617;49.476;10.986;2024-02-23T10:07:49;3.85;;;1.20;;
12878;SDS011;20617;49.476;10.986;2024-02-23T10:09:49;3.03;;;1.08;;
12878;SDS011;20617;49.476;10.986;2024-02-23T10:11:51;3.33;;;2.08;;
12878;SDS011;20617;49.476;10.986;2024-02-23T10:13:52;1.90;;;1.00;;
12878;SDS011;20617;49.476;10.986;2024-02-23T10:15:56;2.58;;;1.00;;
12878;SDS011;20617;49.476;10.986;2024-02-23T10:17:56;2.72;;;0.80;;
12878;SDS011;20617;49.476;10.986;2024-02-23T10:19:58;0.80;;;0.52;;
12878;SDS011;20617;49.476;10.986;2024-02-23T10:21:59;2.60;;;0.80;;
12878;SDS011;20617;49.476;10.986;2024-02-23T10:24:00;2.25;;;0.70;;
12878;SDS011;20617;49.476;10.986;2024-02-23T10:26:00;4.90;;;1.27;;
12878;SDS011;20617;49.476;10.986;2024-02-23T10:28:01;2.55;;;0.88;;
12878;SDS011;20617;49.476;10.986;2024-02-23T10:30:02;2.33;;;0.75;;
12878;SDS011;20617;49.476;10.986;2024-02-23T10:32:06;2.30;;;0.65;;
12878;SDS011;20617;49.476;10.986;2024-02-23T10:36:09;2.58;;;0.80;;
12878;SDS011;20617;49.476;10.986;2024-02-23T10:38:15;2.15;;;0.70;;
12878;SDS011;20617;49.476;10.986;2024-02-23T10:40:18;1.48;;;0.80;;
12878;SDS011;20617;49.476;10.986;2024-02-23T10:42:20;2.88;;;0.85;;
12878;SDS011;20617;49.476;10.986;2024-02-23T10:44:24;2.40;;;0.70;;
12878;SDS011;20617;49.476;10.986;2024-02-23T10:46:26;6.00;;;0.80;;
12878;SDS011;20617;49.476;10.986;2024-02-23T10:48:31;2.25;;;0.70;;
12878;SDS011;20617;49.476;10.986;2024-02-23T10:50:32;2.25;;;0.80;;
12878;SDS011;20617;49.476;10.986;2024-02-23T10:52:33;2.47;;;0.85;;
12878;SDS011;20617;49.476;10.986;2024-02-23T10:54:35;1.75;;;0.82;;
12878;SDS011;20617;49.476;10.986;2024-02-23T10:56:36;1.15;;;0.68;;
12878;SDS011;20617;49.476;10.986;2024-02-23T10:58:37;2.33;;;0.70;;
12878;SDS011;20617;49.476;10.986;2024-02-23T11:00:38;3.00;;;0.80;;
12878;SDS011;20617;49.476;10.986;2024-02-23T11:02:39;5.57;;;1.05;;
12878;SDS011;20617;49.476;10.986;2024-02-23T11:04:47;3.00;;;0.80;;
12878;SDS011;20617;49.476;10.986;2024-02-23T11:06:49;2.55;;;0.75;;
12878;SDS011;20617;49.476;10.986;2024-02-23T11:08:50;4.35;;;1.40;;
12878;SDS011;20617;49.476;10.986;2024-02-23T11:10:51;1.30;;;0.75;;
12878;SDS011;20617;49.476;10.986;2024-02-23T11:12:56;4.00;;;1.00;;
12878;SDS011;20617;49.476;10.986;2024-02-23T11:14:58;2.42;;;0.50;;
12878;SDS011;20617;49.476;10.986;2024-02-23T11:16:59;2.72;;;1.25;;
12878;SDS011;20617;49.476;10.986;2024-02-23T11:19:04;2.15;;;0.75;;
12878;SDS011;20617;49.476;10.986;2024-02-23T11:21:09;1.98;;;0.60;;
12878;SDS011;20617;49.476;10.986;2024-02-23T11:23:13;1.92;;;0.68;;
12878;SDS011;20617;49.476;10.986;2024-02-23T11:25:14;1.40;;;0.65;;
12878;SDS011;20617;49.476;10.986;2024-02-23T11:27:17;1.75;;;0.65;;
12878;SDS011;20617;49.476;10.986;2024-02-23T11:29:18;0.68;;;0.63;;
12878;SDS011;20617;49.476;10.986;2024-02-23T11:31:19;2.13;;;1.10;;
12878;SDS011;20617;49.476;10.986;2024-02-23T11:33:27;3.30;;;1.42;;
12878;SDS011;20617;49.476;10.986;2024-02-23T11:35:28;2.95;;;0.70;;
12878;SDS011;20617;49.476;10.986;2024-02-23T11:37:32;2.60;;;0.60;;
12878;SDS011;20617;49.476;10.986;2024-02-23T11:39:33;1.92;;;0.70;;
12878;SDS011;20617;49.476;10.986;2024-02-23T11:41:37;3.85;;;0.98;;
12878;SDS011;20617;49.476;10.986;2024-02-23T11:43:39;2.67;;;1.13;;
12878;SDS011;20617;49.476;10.986;2024-02-23T11:45:41;2.03;;;0.70;;
12878;SDS011;20617;49.476;10.986;2024-02-23T11:47:42;2.20;;;0.80;;
12878;SDS011;20617;49.476;10.986;2024-02-23T11:49:43;1.27;;;0.70;;
12878;SDS011;20617;49.476;10.986;2024-02-23T11:51:43;3.95;;;1.45;;
12878;SDS011;20617;49.476;10.986;2024-02-23T11:53:47;2.28;;;1.17;;
12878;SDS011;20617;49.476;10.986;2024-02-23T11:55:48;3.17;;;1.17;;
12878;SDS011;20617;49.476;10.986;2024-02-23T11:57:49;0.70;;;0.60;;
12878;SDS011;20617;49.476;10.986;2024-02-23T11:59:50;1.90;;;0.73;;
12878;SDS011;20617;49.476;10.986;2024-02-23T12:01:51;2.47;;;1.08;;